sensor_id;sensor_type;location;lat;lon;timestamp;pressure;altitude;pressure_sealevel;temperature;humidity
72124;BME280;63818;37.134;-8.548;2023-04-27T00:03:46;100848.3;;;26.2;27.7
72124;BME280;63818;37.134;-8.548;2023-04-27T00:08:32;100845.6;;;26.2;27.9
72124;BME280;63818;37.134;-8.548;2023-04-27T00:13:17;100848.3;;;26.2;27.6
72124;BME280;63818;37.134;-8.548;2023-04-27T00:18:04;100845.6;;;26.2;27.3
72124;BME280;63818;37.134;-8.548;2023-04-27T00:22:50;100858.2;;;26.2;27.6
72124;BME280;63818;37.134;-8.548;2023-04-27T00:27:36;100858.2;;;26.2;27.9
72124;BME280;63818;37.134;-8.548;2023-04-27T00:32:22;100849.5;;;26.1;27.9
72124;BME280;63818;37.134;-8.548;2023-04-27T00:37:08;100846.4;;;26.1;27.8
72124;BME280;63818;37.134;-8.548;2023-04-27T00:41:54;100847.2;;;26.1;27.9
72124;BME280;63818;37.134;-8.548;2023-04-27T00:46:43;100846.0;;;26.1;28.3
72124;BME280;63818;37.134;-8.548;2023-04-27T00:51:32;100849.2;;;26.1;28.3
72124;BME280;63818;37.134;-8.548;2023-04-27T00:56:18;100846.5;;;26.1;29.1
72124;BME280;63818;37.134;-8.548;2023-04-27T01:01:04;100842.5;;;26.1;29.6
72124;BME280;63818;37.134;-8.548;2023-04-27T01:05:52;100838.3;;;26.0;30.1
72124;BME280;63818;37.134;-8.548;2023-04-27T01:10:41;100840.3;;;26.0;31.2
72124;BME280;63818;37.134;-8.548;2023-04-27T01:15:27;100835.2;;;25.9;31.1
72124;BME280;63818;37.134;-8.548;2023-04-27T01:20:13;100832.9;;;25.9;30.9
72124;BME280;63818;37.134;-8.548;2023-04-27T01:24:59;100832.9;;;25.9;30.7
72124;BME280;63818;37.134;-8.548;2023-04-27T01:29:46;100826.2;;;25.9;31.0
72124;BME280;63818;37.134;-8.548;2023-04-27T01:34:32;100823.8;;;25.9;31.4
72124;BME280;63818;37.134;-8.548;2023-04-27T01:39:21;100819.5;;;25.9;31.6
72124;BME280;63818;37.134;-8.548;2023-04-27T01:44:09;100820.3;;;25.9;31.7
72124;BME280;63818;37.134;-8.548;2023-04-27T01:48:58;100815.2;;;25.9;31.9
72124;BME280;63818;37.134;-8.548;2023-04-27T01:53:46;100809.0;;;25.8;31.8
72124;BME280;63818;37.134;-8.548;2023-04-27T01:58:32;100797.2;;;25.8;31.8
72124;BME280;63818;37.134;-8.548;2023-04-27T02:03:18;100788.2;;;25.8;32.0
72124;BME280;63818;37.134;-8.548;2023-04-27T02:08:04;100779.1;;;25.8;32.4
72124;BME280;63818;37.134;-8.548;2023-04-27T02:12:53;100786.7;;;25.7;32.3
72124;BME280;63818;37.134;-8.548;2023-04-27T02:17:39;100777.7;;;25.7;32.3
72124;BME280;63818;37.134;-8.548;2023-04-27T02:22:25;100770.6;;;25.6;32.4
72124;BME280;63818;37.134;-8.548;2023-04-27T02:27:11;100773.0;;;25.6;32.2
72124;BME280;63818;37.134;-8.548;2023-04-27T02:31:57;100782.8;;;25.6;32.0
72124;BME280;63818;37.134;-8.548;2023-04-27T02:36:43;100778.9;;;25.6;32.0
72124;BME280;63818;37.134;-8.548;2023-04-27T02:41:32;100794.7;;;25.5;31.9
72124;BME280;63818;37.134;-8.548;2023-04-27T02:46:18;100803.7;;;25.6;31.8
72124;BME280;63818;37.134;-8.548;2023-04-27T02:51:05;100805.3;;;25.5;32.1
72124;BME280;63818;37.134;-8.548;2023-04-27T02:55:51;100797.4;;;25.5;32.1
72124;BME280;63818;37.134;-8.548;2023-04-27T03:00:37;100802.2;;;25.5;32.6
72124;BME280;63818;37.134;-8.548;2023-04-27T03:05:24;100805.3;;;25.5;32.9
72124;BME280;63818;37.134;-8.548;2023-04-27T03:10:10;100810.0;;;25.5;32.9
72124;BME280;63818;37.134;-8.548;2023-04-27T03:14:56;100814.0;;;25.4;32.9
72124;BME280;63818;37.134;-8.548;2023-04-27T03:19:44;100807.8;;;25.4;34.2
72124;BME280;63818;37.134;-8.548;2023-04-27T03:24:31;100805.9;;;25.3;34.4
72124;BME280;63818;37.134;-8.548;2023-04-27T03:29:17;100811.1;;;25.2;34.4
72124;BME280;63818;37.134;-8.548;2023-04-27T03:34:03;100802.6;;;25.0;33.8
72124;BME280;63818;37.134;-8.548;2023-04-27T03:38:49;100806.5;;;25.0;33.8
72124;BME280;63818;37.134;-8.548;2023-04-27T03:43:35;100803.3;;;25.1;34.2
72124;BME280;63818;37.134;-8.548;2023-04-27T03:48:21;100795.0;;;25.1;33.9
72124;BME280;63818;37.134;-8.548;2023-04-27T03:53:07;100789.5;;;25.1;33.7
72124;BME280;63818;37.134;-8.548;2023-04-27T03:57:53;100783.2;;;25.1;33.5
72124;BME280;63818;37.134;-8.548;2023-04-27T04:02:40;100775.8;;;25.0;33.3
72124;BME280;63818;37.134;-8.548;2023-04-27T04:07:25;100768.8;;;25.0;33.3
72124;BME280;63818;37.134;-8.548;2023-04-27T04:12:11;100765.6;;;25.0;33.5
72124;BME280;63818;37.134;-8.548;2023-04-27T04:16:57;100768.4;;;25.0;34.0
72124;BME280;63818;37.134;-8.548;2023-04-27T04:21:44;100760.9;;;25.0;34.4
72124;BME280;63818;37.134;-8.548;2023-04-27T04:26:30;100753.1;;;25.0;34.2
72124;BME280;63818;37.134;-8.548;2023-04-27T04:31:16;100742.1;;;25.0;34.1
72124;BME280;63818;37.134;-8.548;2023-04-27T04:36:04;100746.9;;;24.8;34.3
72124;BME280;63818;37.134;-8.548;2023-04-27T04:40:50;100742.2;;;24.8;34.5
72124;BME280;63818;37.134;-8.548;2023-04-27T04:45:36;100749.6;;;24.8;34.6
72124;BME280;63818;37.134;-8.548;2023-04-27T04:50:22;100751.2;;;24.8;34.8
72124;BME280;63818;37.134;-8.548;2023-04-27T04:55:08;100751.6;;;24.8;35.2
72124;BME280;63818;37.134;-8.548;2023-04-27T04:59:55;100741.1;;;24.7;35.2
72124;BME280;63818;37.134;-8.548;2023-04-27T05:04:43;100743.4;;;24.7;35.9
72124;BME280;63818;37.134;-8.548;2023-04-27T05:09:32;100746.2;;;24.6;36.6
72124;BME280;63818;37.134;-8.548;2023-04-27T05:14:18;100743.5;;;24.6;37.0
72124;BME280;63818;37.134;-8.548;2023-04-27T05:19:05;100745.4;;;24.6;38.0
72124;BME280;63818;37.134;-8.548;2023-04-27T05:23:50;100737.6;;;24.6;37.8
72124;BME280;63818;37.134;-8.548;2023-04-27T05:28:36;100736.8;;;24.6;38.4
72124;BME280;63818;37.134;-8.548;2023-04-27T05:33:22;100742.0;;;24.5;38.9
72124;BME280;63818;37.134;-8.548;2023-04-27T05:38:08;100736.2;;;24.4;39.2
72124;BME280;63818;37.134;-8.548;2023-04-27T05:42:54;100735.8;;;24.4;39.4
72124;BME280;63818;37.134;-8.548;2023-04-27T05:47:41;100734.6;;;24.3;39.4
72124;BME280;63818;37.134;-8.548;2023-04-27T05:52:27;100741.7;;;24.3;39.3
72124;BME280;63818;37.134;-8.548;2023-04-27T05:57:14;100741.7;;;24.3;39.3
72124;BME280;63818;37.134;-8.548;2023-04-27T06:02:00;100746.4;;;24.3;39.2
72124;BME280;63818;37.134;-8.548;2023-04-27T06:06:46;100759.7;;;24.3;39.5
72124;BME280;63818;37.134;-8.548;2023-04-27T06:11:32;100760.5;;;24.4;39.4
72124;BME280;63818;37.134;-8.548;2023-04-27T06:16:18;100763.7;;;24.3;39.2
72124;BME280;63818;37.134;-8.548;2023-04-27T06:21:04;100763.3;;;24.3;38.9
72124;BME280;63818;37.134;-8.548;2023-04-27T06:25:50;100767.2;;;24.3;39.0
72124;BME280;63818;37.134;-8.548;2023-04-27T06:30:36;100758.1;;;24.4;39.3
72124;BME280;63818;37.134;-8.548;2023-04-27T06:35:23;100766.4;;;24.4;38.5
72124;BME280;63818;37.134;-8.548;2023-04-27T06:40:09;100760.1;;;24.4;38.7
72124;BME280;63818;37.134;-8.548;2023-04-27T06:44:57;100770.7;;;24.4;38.6
72124;BME280;63818;37.134;-8.548;2023-04-27T06:49:43;100769.1;;;24.4;38.5
72124;BME280;63818;37.134;-8.548;2023-04-27T06:54:29;100771.5;;;24.4;38.0
72124;BME280;63818;37.134;-8.548;2023-04-27T06:59:16;100773.8;;;24.4;37.7
72124;BME280;63818;37.134;-8.548;2023-04-27T07:04:02;100779.3;;;24.4;38.0
72124;BME280;63818;37.134;-8.548;2023-04-27T07:08:48;100776.2;;;24.4;38.8
72124;BME280;63818;37.134;-8.548;2023-04-27T07:13:34;100790.7;;;24.5;39.6
72124;BME280;63818;37.134;-8.548;2023-04-27T07:18:20;100792.6;;;24.5;39.8
72124;BME280;63818;37.134;-8.548;2023-04-27T07:23:06;100782.8;;;24.4;38.7
72124;BME280;63818;37.134;-8.548;2023-04-27T07:27:52;100784.4;;;24.4;38.1
72124;BME280;63818;37.134;-8.548;2023-04-27T07:32:40;100793.5;;;24.4;38.3
72124;BME280;63818;37.134;-8.548;2023-04-27T07:37:28;100779.3;;;24.4;38.1
72124;BME280;63818;37.134;-8.548;2023-04-27T07:42:15;100786.8;;;24.5;38.1
72124;BME280;63818;37.134;-8.548;2023-04-27T07:47:00;100787.9;;;24.5;38.7
72124;BME280;63818;37.134;-8.548;2023-04-27T07:51:47;100790.6;;;24.5;38.9
72124;BME280;63818;37.134;-8.548;2023-04-27T07:56:32;100807.9;;;24.6;39.1
72124;BME280;63818;37.134;-8.548;2023-04-27T08:01:18;100803.1;;;24.6;39.0
72124;BME280;63818;37.134;-8.548;2023-04-27T08:06:05;100806.7;;;24.6;38.9
72124;BME280;63818;37.134;-8.548;2023-04-27T08:10:51;100816.5;;;24.7;38.7
72124;BME280;63818;37.134;-8.548;2023-04-27T08:15:37;100820.7;;;24.7;38.7
72124;BME280;63818;37.134;-8.548;2023-04-27T08:20:25;100822.3;;;24.8;39.1
72124;BME280;63818;37.134;-8.548;2023-04-27T08:25:11;100825.8;;;24.8;39.5
72124;BME280;63818;37.134;-8.548;2023-04-27T08:29:57;100829.3;;;24.8;39.3
72124;BME280;63818;37.134;-8.548;2023-04-27T08:34:45;100830.9;;;24.9;39.4
72124;BME280;63818;37.134;-8.548;2023-04-27T08:39:31;100840.3;;;24.9;40.0
72124;BME280;63818;37.134;-8.548;2023-04-27T08:44:17;100841.1;;;25.0;39.3
72124;BME280;63818;37.134;-8.548;2023-04-27T08:49:03;100834.0;;;25.0;39.7
72124;BME280;63818;37.134;-8.548;2023-04-27T08:53:52;100849.7;;;25.0;40.0
72124;BME280;63818;37.134;-8.548;2023-04-27T08:58:38;100853.7;;;25.0;40.4
72124;BME280;63818;37.134;-8.548;2023-04-27T09:03:24;100853.3;;;24.9;40.2
72124;BME280;63818;37.134;-8.548;2023-04-27T09:08:13;100861.5;;;24.9;40.2
72124;BME280;63818;37.134;-8.548;2023-04-27T09:12:59;100861.5;;;24.9;39.5
72124;BME280;63818;37.134;-8.548;2023-04-27T09:17:45;100863.1;;;25.0;39.5
72124;BME280;63818;37.134;-8.548;2023-04-27T09:22:45;100857.2;;;25.0;40.0
72124;BME280;63818;37.134;-8.548;2023-04-27T09:27:31;100848.1;;;25.0;39.7
72124;BME280;63818;37.134;-8.548;2023-04-27T09:32:18;100865.8;;;25.0;41.3
72124;BME280;63818;37.134;-8.548;2023-04-27T09:37:04;100860.7;;;25.0;39.8
72124;BME280;63818;37.134;-8.548;2023-04-27T09:41:50;100847.3;;;25.0;40.5
72124;BME280;63818;37.134;-8.548;2023-04-27T09:46:36;100846.1;;;25.0;40.1
72124;BME280;63818;37.134;-8.548;2023-04-27T09:51:23;100863.0;;;25.1;40.4
72124;BME280;63818;37.134;-8.548;2023-04-27T09:56:19;100866.9;;;25.1;40.4
72124;BME280;63818;37.134;-8.548;2023-04-27T10:01:20;100860.7;;;25.1;40.0
72124;BME280;63818;37.134;-8.548;2023-04-27T10:07:09;100857.1;;;25.1;39.6
72124;BME280;63818;37.134;-8.548;2023-04-27T10:12:14;100861.0;;;25.2;38.0
72124;BME280;63818;37.134;-8.548;2023-04-27T10:17:09;100853.5;;;25.2;36.4
72124;BME280;63818;37.134;-8.548;2023-04-27T10:21:56;100845.6;;;25.2;35.4
72124;BME280;63818;37.134;-8.548;2023-04-27T10:26:47;100846.0;;;25.2;35.1
72124;BME280;63818;37.134;-8.548;2023-04-27T10:31:32;100848.7;;;25.3;35.1
72124;BME280;63818;37.134;-8.548;2023-04-27T10:36:19;100850.2;;;25.4;35.8
72124;BME280;63818;37.134;-8.548;2023-04-27T10:41:14;100850.2;;;25.4;34.7
72124;BME280;63818;37.134;-8.548;2023-04-27T10:46:09;100859.2;;;25.5;34.7
72124;BME280;63818;37.134;-8.548;2023-04-27T10:50:55;100859.9;;;25.5;35.3
72124;BME280;63818;37.134;-8.548;2023-04-27T10:55:41;100860.7;;;25.5;36.8
72124;BME280;63818;37.134;-8.548;2023-04-27T11:00:29;100867.0;;;25.5;38.3
72124;BME280;63818;37.134;-8.548;2023-04-27T11:05:31;100868.2;;;25.4;38.9
72124;BME280;63818;37.134;-8.548;2023-04-27T11:10:17;100870.3;;;25.4;39.7
72124;BME280;63818;37.134;-8.548;2023-04-27T11:15:04;100864.4;;;25.4;39.8
72124;BME280;63818;37.134;-8.548;2023-04-27T11:20:25;100874.6;;;25.3;39.9
72124;BME280;63818;37.134;-8.548;2023-04-27T11:25:11;100853.0;;;25.4;40.0
72124;BME280;63818;37.134;-8.548;2023-04-27T11:29:57;100858.1;;;25.4;39.5
72124;BME280;63818;37.134;-8.548;2023-04-27T11:34:50;100864.8;;;25.4;39.9
72124;BME280;63818;37.134;-8.548;2023-04-27T11:39:37;100856.5;;;25.4;39.6
72124;BME280;63818;37.134;-8.548;2023-04-27T11:44:26;100853.0;;;25.4;40.1
72124;BME280;63818;37.134;-8.548;2023-04-27T11:49:12;100847.9;;;25.4;39.5
72124;BME280;63818;37.134;-8.548;2023-04-27T11:54:02;100849.5;;;25.4;39.5
72124;BME280;63818;37.134;-8.548;2023-04-27T11:58:49;100859.3;;;25.3;40.5
72124;BME280;63818;37.134;-8.548;2023-04-27T12:03:34;100860.5;;;25.3;40.6
72124;BME280;63818;37.134;-8.548;2023-04-27T12:08:20;100863.3;;;25.2;41.0
72124;BME280;63818;37.134;-8.548;2023-04-27T12:13:06;100859.4;;;25.2;40.4
72124;BME280;63818;37.134;-8.548;2023-04-27T12:17:53;100853.9;;;25.1;41.0
72124;BME280;63818;37.134;-8.548;2023-04-27T12:22:39;100862.2;;;25.1;41.6
72124;BME280;63818;37.134;-8.548;2023-04-27T12:27:25;100854.3;;;25.1;41.2
72124;BME280;63818;37.134;-8.548;2023-04-27T12:32:13;100849.6;;;25.1;42.0
72124;BME280;63818;37.134;-8.548;2023-04-27T12:36:59;100843.3;;;25.1;42.5
72124;BME280;63818;37.134;-8.548;2023-04-27T12:41:48;100844.5;;;25.2;42.9
72124;BME280;63818;37.134;-8.548;2023-04-27T12:46:34;100837.0;;;25.2;42.6
72124;BME280;63818;37.134;-8.548;2023-04-27T12:51:23;100841.3;;;25.2;43.0
72124;BME280;63818;37.134;-8.548;2023-04-27T12:56:09;100847.7;;;25.1;42.9
72124;BME280;63818;37.134;-8.548;2023-04-27T13:00:56;100837.8;;;25.1;43.0
72124;BME280;63818;37.134;-8.548;2023-04-27T13:05:42;100848.0;;;25.1;42.9
72124;BME280;63818;37.134;-8.548;2023-04-27T13:10:28;100836.3;;;25.1;42.8
72124;BME280;63818;37.134;-8.548;2023-04-27T13:15:14;100835.8;;;25.1;43.0
72124;BME280;63818;37.134;-8.548;2023-04-27T13:20:00;100838.2;;;25.2;43.3
72124;BME280;63818;37.134;-8.548;2023-04-27T13:24:46;100833.8;;;25.2;43.4
72124;BME280;63818;37.134;-8.548;2023-04-27T13:29:32;100837.4;;;25.2;43.8
72124;BME280;63818;37.134;-8.548;2023-04-27T13:34:19;100832.2;;;25.2;44.6
72124;BME280;63818;37.134;-8.548;2023-04-27T13:39:05;100834.2;;;25.3;44.8
72124;BME280;63818;37.134;-8.548;2023-04-27T13:43:51;100847.1;;;25.3;44.9
72124;BME280;63818;37.134;-8.548;2023-04-27T13:48:36;100852.6;;;25.3;44.8
72124;BME280;63818;37.134;-8.548;2023-04-27T13:53:23;100852.6;;;25.3;44.1
72124;BME280;63818;37.134;-8.548;2023-04-27T13:58:09;100844.0;;;25.3;43.9
72124;BME280;63818;37.134;-8.548;2023-04-27T14:02:55;100847.9;;;25.3;44.5
72124;BME280;63818;37.134;-8.548;2023-04-27T14:07:41;100844.0;;;25.2;44.7
72124;BME280;63818;37.134;-8.548;2023-04-27T14:12:29;100843.2;;;25.2;44.6
72124;BME280;63818;37.134;-8.548;2023-04-27T14:17:15;100849.5;;;25.3;45.1
72124;BME280;63818;37.134;-8.548;2023-04-27T14:22:01;100842.4;;;25.4;45.1
72124;BME280;63818;37.134;-8.548;2023-04-27T14:26:48;100840.8;;;25.4;45.6
72124;BME280;63818;37.134;-8.548;2023-04-27T14:31:34;100839.2;;;25.4;46.2
72124;BME280;63818;37.134;-8.548;2023-04-27T14:36:20;100834.0;;;25.5;46.5
72124;BME280;63818;37.134;-8.548;2023-04-27T14:41:06;100815.9;;;25.5;46.7
72124;BME280;63818;37.134;-8.548;2023-04-27T14:45:54;100816.3;;;25.5;47.2
72124;BME280;63818;37.134;-8.548;2023-04-27T14:50:40;100829.2;;;25.6;47.5
72124;BME280;63818;37.134;-8.548;2023-04-27T14:55:27;100828.1;;;25.6;48.1
72124;BME280;63818;37.134;-8.548;2023-04-27T15:00:16;100813.9;;;25.6;48.3
72124;BME280;63818;37.134;-8.548;2023-04-27T15:05:02;100805.6;;;25.6;48.7
72124;BME280;63818;37.134;-8.548;2023-04-27T15:09:49;100799.2;;;25.7;48.7
72124;BME280;63818;37.134;-8.548;2023-04-27T15:14:34;100794.9;;;25.7;48.9
72124;BME280;63818;37.134;-8.548;2023-04-27T15:19:20;100795.7;;;25.7;50.1
72124;BME280;63818;37.134;-8.548;2023-04-27T15:24:09;100790.1;;;25.8;50.3
72124;BME280;63818;37.134;-8.548;2023-04-27T15:28:55;100789.6;;;26.0;50.8
72124;BME280;63818;37.134;-8.548;2023-04-27T15:33:41;100784.7;;;26.1;50.6
72124;BME280;63818;37.134;-8.548;2023-04-27T15:38:27;100786.9;;;26.2;49.8
72124;BME280;63818;37.134;-8.548;2023-04-27T15:43:13;100786.3;;;26.4;50.2
72124;BME280;63818;37.134;-8.548;2023-04-27T15:47:59;100781.4;;;26.6;49.9
72124;BME280;63818;37.134;-8.548;2023-04-27T15:52:46;100776.1;;;26.7;49.6
72124;BME280;63818;37.134;-8.548;2023-04-27T15:57:32;100769.4;;;26.9;49.6
72124;BME280;63818;37.134;-8.548;2023-04-27T16:02:18;100778.3;;;27.0;49.4
72124;BME280;63818;37.134;-8.548;2023-04-27T16:07:04;100771.2;;;27.0;48.9
72124;BME280;63818;37.134;-8.548;2023-04-27T16:11:51;100768.6;;;27.2;48.6
72124;BME280;63818;37.134;-8.548;2023-04-27T16:16:38;100762.4;;;27.4;48.6
72124;BME280;63818;37.134;-8.548;2023-04-27T16:21:24;100767.0;;;27.5;48.8
72124;BME280;63818;37.134;-8.548;2023-04-27T16:26:10;100753.4;;;27.5;48.3
72124;BME280;63818;37.134;-8.548;2023-04-27T16:30:57;100760.5;;;27.5;48.6
72124;BME280;63818;37.134;-8.548;2023-04-27T16:35:44;100757.5;;;27.7;48.7
72124;BME280;63818;37.134;-8.548;2023-04-27T16:40:30;100754.2;;;27.7;48.1
72124;BME280;63818;37.134;-8.548;2023-04-27T16:45:16;100767.6;;;27.8;48.5
72124;BME280;63818;37.134;-8.548;2023-04-27T16:50:03;100763.4;;;27.7;48.1
72124;BME280;63818;37.134;-8.548;2023-04-27T16:54:49;100763.5;;;27.6;48.7
72124;BME280;63818;37.134;-8.548;2023-04-27T16:59:35;100758.8;;;27.6;49.2
72124;BME280;63818;37.134;-8.548;2023-04-27T17:04:21;100758.6;;;27.5;49.5
72124;BME280;63818;37.134;-8.548;2023-04-27T17:09:07;100765.0;;;27.5;49.8
72124;BME280;63818;37.134;-8.548;2023-04-27T17:13:53;100777.1;;;27.3;50.6
72124;BME280;63818;37.134;-8.548;2023-04-27T17:18:39;100772.7;;;27.1;51.2
72124;BME280;63818;37.134;-8.548;2023-04-27T17:23:25;100785.0;;;27.0;51.6
72124;BME280;63818;37.134;-8.548;2023-04-27T17:28:13;100788.8;;;26.9;52.4
72124;BME280;63818;37.134;-8.548;2023-04-27T17:32:59;100779.8;;;26.9;52.5
72124;BME280;63818;37.134;-8.548;2023-04-27T17:37:45;100769.2;;;26.8;52.5
72124;BME280;63818;37.134;-8.548;2023-04-27T17:42:33;100772.4;;;26.8;53.0
72124;BME280;63818;37.134;-8.548;2023-04-27T17:47:21;100771.6;;;26.7;53.1
72124;BME280;63818;37.134;-8.548;2023-04-27T17:52:08;100769.3;;;26.7;53.2
72124;BME280;63818;37.134;-8.548;2023-04-27T17:56:54;100763.9;;;26.7;53.8
72124;BME280;63818;37.134;-8.548;2023-04-27T18:01:40;100755.1;;;26.7;53.7
72124;BME280;63818;37.134;-8.548;2023-04-27T18:06:26;100774.1;;;26.7;53.9
72124;BME280;63818;37.134;-8.548;2023-04-27T18:11:12;100763.5;;;26.6;54.2
72124;BME280;63818;37.134;-8.548;2023-04-27T18:15:58;100768.4;;;26.6;54.7
72124;BME280;63818;37.134;-8.548;2023-04-27T18:20:45;100767.7;;;26.5;55.2
72124;BME280;63818;37.134;-8.548;2023-04-27T18:25:31;100769.7;;;26.4;55.4
72124;BME280;63818;37.134;-8.548;2023-04-27T18:30:19;100783.6;;;26.3;55.6
72124;BME280;63818;37.134;-8.548;2023-04-27T18:35:05;100780.8;;;26.3;56.1
72124;BME280;63818;37.134;-8.548;2023-04-27T18:39:52;100787.2;;;26.3;56.2
72124;BME280;63818;37.134;-8.548;2023-04-27T18:44:38;100793.9;;;26.3;56.3
72124;BME280;63818;37.134;-8.548;2023-04-27T18:49:23;100784.5;;;26.2;56.5
72124;BME280;63818;37.134;-8.548;2023-04-27T18:54:09;100785.7;;;26.2;56.8
72124;BME280;63818;37.134;-8.548;2023-04-27T18:58:56;100786.9;;;26.2;56.9
72124;BME280;63818;37.134;-8.548;2023-04-27T19:03:41;100794.5;;;26.1;57.5
72124;BME280;63818;37.134;-8.548;2023-04-27T19:08:28;100793.5;;;26.0;57.6
72124;BME280;63818;37.134;-8.548;2023-04-27T19:13:14;100795.8;;;26.0;58.1
72124;BME280;63818;37.134;-8.548;2023-04-27T19:18:02;100792.4;;;25.9;58.6
72124;BME280;63818;37.134;-8.548;2023-04-27T19:22:51;100786.5;;;25.9;58.4
72124;BME280;63818;37.134;-8.548;2023-04-27T19:27:36;100788.2;;;25.8;59.1
72124;BME280;63818;37.134;-8.548;2023-04-27T19:32:23;100792.5;;;25.7;59.0
72124;BME280;63818;37.134;-8.548;2023-04-27T19:37:09;100794.5;;;25.7;59.5
72124;BME280;63818;37.134;-8.548;2023-04-27T19:41:55;100783.6;;;25.7;59.6
72124;BME280;63818;37.134;-8.548;2023-04-27T19:46:41;100788.3;;;25.6;59.7
72124;BME280;63818;37.134;-8.548;2023-04-27T19:51:27;100790.2;;;25.7;59.8
72124;BME280;63818;37.134;-8.548;2023-04-27T19:56:13;100789.8;;;25.7;59.5
72124;BME280;63818;37.134;-8.548;2023-04-27T20:00:59;100784.3;;;25.7;59.3
72124;BME280;63818;37.134;-8.548;2023-04-27T20:05:45;100787.1;;;25.6;59.4
72124;BME280;63818;37.134;-8.548;2023-04-27T20:10:31;100796.6;;;25.6;59.5
72124;BME280;63818;37.134;-8.548;2023-04-27T20:15:16;100794.2;;;25.6;59.6
72124;BME280;63818;37.134;-8.548;2023-04-27T20:20:03;100799.4;;;25.5;59.7
72124;BME280;63818;37.134;-8.548;2023-04-27T20:24:49;100800.2;;;25.5;60.0
72124;BME280;63818;37.134;-8.548;2023-04-27T20:29:35;100797.9;;;25.4;60.1
72124;BME280;63818;37.134;-8.548;2023-04-27T20:34:21;100801.8;;;25.5;60.4
72124;BME280;63818;37.134;-8.548;2023-04-27T20:39:09;100803.8;;;25.5;60.5
72124;BME280;63818;37.134;-8.548;2023-04-27T20:43:58;100814.4;;;25.5;60.7
72124;BME280;63818;37.134;-8.548;2023-04-27T20:48:44;100819.5;;;25.5;60.6
72124;BME280;63818;37.134;-8.548;2023-04-27T20:53:31;100815.6;;;25.4;60.1
72124;BME280;63818;37.134;-8.548;2023-04-27T20:58:16;100815.3;;;25.3;60.4
72124;BME280;63818;37.134;-8.548;2023-04-27T21:03:02;100807.1;;;25.2;60.5
72124;BME280;63818;37.134;-8.548;2023-04-27T21:07:48;100821.2;;;25.2;60.6
72124;BME280;63818;37.134;-8.548;2023-04-27T21:12:34;100826.7;;;25.3;60.8
72124;BME280;63818;37.134;-8.548;2023-04-27T21:17:20;100835.4;;;25.2;61.1
72124;BME280;63818;37.134;-8.548;2023-04-27T21:22:06;100835.4;;;25.2;61.0
72124;BME280;63818;37.134;-8.548;2023-04-27T21:26:52;100834.7;;;25.1;61.1
72124;BME280;63818;37.134;-8.548;2023-04-27T21:31:38;100839.8;;;25.2;61.3
72124;BME280;63818;37.134;-8.548;2023-04-27T21:36:24;100836.2;;;25.2;61.0
72124;BME280;63818;37.134;-8.548;2023-04-27T21:41:11;100844.1;;;25.1;61.1
72124;BME280;63818;37.134;-8.548;2023-04-27T21:45:57;100850.4;;;25.0;60.9
72124;BME280;63818;37.134;-8.548;2023-04-27T21:50:43;100860.7;;;25.0;61.0
72124;BME280;63818;37.134;-8.548;2023-04-27T21:55:29;100870.5;;;24.9;60.9
72124;BME280;63818;37.134;-8.548;2023-04-27T22:00:15;100870.9;;;24.9;61.1
72124;BME280;63818;37.134;-8.548;2023-04-27T22:05:01;100869.4;;;24.7;61.3
72124;BME280;63818;37.134;-8.548;2023-04-27T22:09:48;100868.3;;;24.7;61.4
72124;BME280;63818;37.134;-8.548;2023-04-27T22:14:36;100864.3;;;24.8;61.6
72124;BME280;63818;37.134;-8.548;2023-04-27T22:19:24;100862.8;;;24.7;61.7
72124;BME280;63818;37.134;-8.548;2023-04-27T22:24:10;100869.5;;;24.5;62.0
72124;BME280;63818;37.134;-8.548;2023-04-27T22:28:56;100877.8;;;24.5;62.3
72124;BME280;63818;37.134;-8.548;2023-04-27T22:33:41;100869.9;;;24.5;62.4
72124;BME280;63818;37.134;-8.548;2023-04-27T22:38:27;100891.1;;;24.5;62.4
72124;BME280;63818;37.134;-8.548;2023-04-27T22:43:13;100879.4;;;24.4;62.4
72124;BME280;63818;37.134;-8.548;2023-04-27T22:48:00;100879.8;;;24.3;62.7
72124;BME280;63818;37.134;-8.548;2023-04-27T22:52:46;100887.6;;;24.3;62.7
72124;BME280;63818;37.134;-8.548;2023-04-27T22:57:31;100865.7;;;24.4;62.0
72124;BME280;63818;37.134;-8.548;2023-04-27T23:02:17;100853.9;;;24.4;62.0
72124;BME280;63818;37.134;-8.548;2023-04-27T23:07:05;100845.6;;;24.5;61.9
72124;BME280;63818;37.134;-8.548;2023-04-27T23:11:52;100858.9;;;24.5;61.8
72124;BME280;63818;37.134;-8.548;2023-04-27T23:16:39;100870.7;;;24.6;61.5
72124;BME280;63818;37.134;-8.548;2023-04-27T23:21:25;100874.2;;;24.6;61.4
72124;BME280;63818;37.134;-8.548;2023-04-27T23:26:15;100875.0;;;24.7;61.4
72124;BME280;63818;37.134;-8.548;2023-04-27T23:31:01;100884.8;;;24.7;61.4
72124;BME280;63818;37.134;-8.548;2023-04-27T23:35:46;100857.0;;;24.5;61.3
72124;BME280;63818;37.134;-8.548;2023-04-27T23:40:32;100862.1;;;24.4;60.8
72124;BME280;63818;37.134;-8.548;2023-04-27T23:45:18;100850.8;;;24.3;60.6
72124;BME280;63818;37.134;-8.548;2023-04-27T23:50:05;100846.9;;;24.2;60.5
72124;BME280;63818;37.134;-8.548;2023-04-27T23:54:50;100843.7;;;24.3;60.3
72124;BME280;63818;37.134;-8.548;2023-04-27T23:59:39;100847.6;;;24.4;60.2
